Time;durP1;ratioP1;P1;durP2;ratioP2;P2;SDS_P1;SDS_P2;PMS_P1;PMS_P2;Temp;Humidity;BMP_temperature;BMP_pressure;BME280_temperature;BME280_humidity;BME280_pressure;Samples;Min_cycle;Max_cycle;Signal;HPM_P1;HPM_P2
2022/06/29 00:00:17;;;;;;;36.40;9.65;;;27.00;99.90;;;;;;5025780;28;20109;-93
2022/06/29 00:02:44;;;;;;;33.13;9.00;;;27.00;99.90;;;;;;5013451;28;20030;-93
2022/06/29 00:05:12;;;;;;;35.30;10.63;;;27.00;99.90;;;;;;5021551;28;20507;-92
2022/06/29 00:07:38;;;;;;;27.02;9.35;;;27.00;99.90;;;;;;5030553;28;20025;-93
2022/06/29 00:10:05;;;;;;;35.97;10.10;;;26.90;99.90;;;;;;5024441;28;20559;-91
2022/06/29 00:12:31;;;;;;;26.48;9.70;;;26.90;99.90;;;;;;5030911;28;20029;-92
2022/06/29 00:14:57;;;;;;;23.67;9.73;;;26.90;99.90;;;;;;5023296;28;20041;-93
2022/06/29 00:17:23;;;;;;;27.90;9.70;;;27.00;99.90;;;;;;5028318;28;20068;-92
2022/06/29 00:19:49;;;;;;;33.03;10.25;;;26.90;99.90;;;;;;5025964;28;20033;-92
2022/06/29 00:22:15;;;;;;;19.02;9.90;;;26.90;99.90;;;;;;5017079;28;20551;-93
2022/06/29 00:24:40;;;;;;;28.35;9.57;;;26.80;99.90;;;;;;5016904;28;20165;-92
2022/06/29 00:27:08;;;;;;;27.17;9.95;;;26.80;99.90;;;;;;5028662;28;20388;-93
2022/06/29 00:29:34;;;;;;;25.80;9.93;;;26.70;99.90;;;;;;5025127;28;20037;-94
2022/06/29 00:31:59;;;;;;;33.85;10.07;;;26.70;99.90;;;;;;5013654;28;20038;-93
2022/06/29 00:34:25;;;;;;;22.42;9.68;;;26.60;99.90;;;;;;5015601;28;20032;-92
2022/06/29 00:36:51;;;;;;;24.45;9.95;;;26.60;99.90;;;;;;5023285;28;20128;-92
2022/06/29 00:39:17;;;;;;;22.38;10.07;;;26.60;99.90;;;;;;5026662;28;20543;-92
2022/06/29 00:41:44;;;;;;;29.40;10.15;;;26.50;99.90;;;;;;5030077;28;20532;-93
2022/06/29 00:44:15;;;;;;;25.58;11.05;;;26.50;99.90;;;;;;5026817;28;20026;-93
2022/06/29 00:46:53;;;;;;;27.85;10.65;;;26.50;99.90;;;;;;5027808;28;20026;-92
2022/06/29 00:49:21;;;;;;;21.40;10.43;;;26.50;99.90;;;;;;5026518;28;20033;-92
2022/06/29 00:51:49;;;;;;;25.48;11.50;;;26.50;99.90;;;;;;5018964;28;20026;-93
2022/06/29 00:54:19;;;;;;;20.33;11.40;;;26.40;99.90;;;;;;5014574;28;20096;-92
2022/06/29 00:56:45;;;;;;;21.67;10.48;;;26.40;99.90;;;;;;5022960;28;20404;-94
2022/06/29 00:59:15;;;;;;;19.30;10.82;;;26.40;99.90;;;;;;5028326;28;20022;-92
2022/06/29 01:01:42;;;;;;;26.58;12.10;;;26.40;99.90;;;;;;5019789;28;20080;-92
2022/06/29 01:04:08;;;;;;;18.20;11.30;;;26.30;99.90;;;;;;5014068;28;20022;-92
2022/06/29 01:06:34;;;;;;;21.65;11.73;;;26.40;99.90;;;;;;5021064;28;20164;-91
2022/06/29 01:09:00;;;;;;;23.40;11.30;;;26.40;99.90;;;;;;5013354;28;20021;-93
2022/06/29 01:11:26;;;;;;;17.13;11.27;;;26.40;99.90;;;;;;5020601;28;20021;-92
2022/06/29 01:13:52;;;;;;;21.38;11.52;;;26.30;99.90;;;;;;5013373;28;20030;-92
2022/06/29 01:16:17;;;;;;;24.58;11.80;;;26.20;99.90;;;;;;5024834;28;20089;-93
2022/06/29 01:18:43;;;;;;;17.73;11.73;;;26.20;99.90;;;;;;5029722;28;20051;-92
2022/06/29 01:21:10;;;;;;;19.33;11.68;;;26.10;99.90;;;;;;5015970;28;20030;-94
2022/06/29 01:23:37;;;;;;;18.90;11.60;;;26.10;99.90;;;;;;4996162;28;20064;-93
2022/06/29 01:26:04;;;;;;;24.10;11.73;;;26.10;99.90;;;;;;5025589;28;20067;-92
2022/06/29 01:28:31;;;;;;;15.82;10.70;;;26.10;99.90;;;;;;5030508;28;20037;-93
2022/06/29 01:30:57;;;;;;;17.17;11.20;;;26.10;99.90;;;;;;5043057;28;20449;-93
2022/06/29 01:33:23;;;;;;;18.88;11.52;;;26.20;99.90;;;;;;5011978;28;20086;-93
2022/06/29 01:35:49;;;;;;;17.25;11.10;;;26.10;99.90;;;;;;5025566;28;20066;-92
2022/06/29 01:38:14;;;;;;;19.70;10.73;;;26.20;99.90;;;;;;5029984;28;20064;-93
2022/06/29 01:40:40;;;;;;;21.05;10.93;;;26.20;99.90;;;;;;5024779;28;20599;-92
2022/06/29 01:43:06;;;;;;;13.98;10.88;;;26.20;99.90;;;;;;5010253;28;20025;-91
2022/06/29 01:45:31;;;;;;;16.15;10.38;;;26.20;99.90;;;;;;5024902;28;20033;-93
2022/06/29 01:47:57;;;;;;;12.60;10.80;;;26.20;99.90;;;;;;5030649;28;20029;-92
2022/06/29 01:50:23;;;;;;;19.60;10.85;;;26.20;99.90;;;;;;5019275;28;20500;-91
2022/06/29 01:52:48;;;;;;;12.50;10.75;;;26.20;99.90;;;;;;5016161;28;20108;-91
2022/06/29 01:55:14;;;;;;;12.57;10.43;;;26.20;99.90;;;;;;5018549;28;20619;-91
2022/06/29 01:57:40;;;;;;;14.10;10.52;;;26.20;99.90;;;;;;5014689;28;20029;-90
2022/06/29 02:00:06;;;;;;;16.90;11.18;;;26.30;99.90;;;;;;5022902;28;20529;-91
2022/06/29 02:02:32;;;;;;;16.08;9.95;;;26.30;99.90;;;;;;5031959;28;20040;-90
2022/06/29 02:04:58;;;;;;;12.05;10.25;;;26.40;99.90;;;;;;5027983;28;20547;-94
2022/06/29 02:07:23;;;;;;;18.98;11.18;;;26.40;99.90;;;;;;5030930;28;20031;-91
2022/06/29 02:09:49;;;;;;;14.80;10.10;;;26.40;99.90;;;;;;5027409;28;20419;-89
2022/06/29 02:12:18;;;;;;;16.55;10.30;;;26.50;99.90;;;;;;5032564;28;20396;-90
2022/06/29 02:14:54;;;;;;;13.00;10.07;;;26.50;99.90;;;;;;5026882;28;20038;-91
2022/06/29 02:17:22;;;;;;;14.63;10.32;;;26.60;99.90;;;;;;5014168;28;20480;-91
2022/06/29 02:19:51;;;;;;;15.27;9.77;;;26.60;99.90;;;;;;5023472;28;20393;-91
2022/06/29 02:22:16;;;;;;;17.88;9.77;;;26.70;99.90;;;;;;5032277;28;20025;-90
2022/06/29 02:24:42;;;;;;;12.50;10.02;;;26.80;99.90;;;;;;5026510;28;20025;-91
2022/06/29 02:27:08;;;;;;;18.45;10.02;;;26.80;99.90;;;;;;5032174;28;20071;-94
2022/06/29 02:29:34;;;;;;;13.63;9.60;;;26.80;99.90;;;;;;5028077;28;20288;-90
2022/06/29 02:34:46;;;;;;;18.55;10.10;;;26.80;99.90;;;;;;5020239;28;20040;-92
2022/06/29 02:37:14;;;;;;;16.35;9.90;;;26.80;99.90;;;;;;5014758;28;20026;-92
2022/06/29 02:39:42;;;;;;;13.43;9.88;;;26.70;99.90;;;;;;5019274;28;20028;-92
2022/06/29 02:42:09;;;;;;;16.27;9.90;;;26.70;99.90;;;;;;5032918;28;20051;-92
2022/06/29 02:44:36;;;;;;;14.85;10.18;;;26.70;99.90;;;;;;5027937;28;20029;-93
2022/06/29 02:47:02;;;;;;;12.85;10.05;;;26.60;99.90;;;;;;5025421;28;20531;-91
2022/06/29 02:49:28;;;;;;;14.32;9.55;;;26.60;99.90;;;;;;5027981;28;20029;-91
2022/06/29 02:51:53;;;;;;;12.80;9.43;;;26.60;99.90;;;;;;5016086;28;20105;-92
2022/06/29 02:54:19;;;;;;;10.63;9.43;;;26.60;99.90;;;;;;5016399;28;20028;-91
2022/06/29 02:56:45;;;;;;;16.33;9.48;;;26.50;99.90;;;;;;5021985;28;20749;-91
2022/06/29 02:59:10;;;;;;;16.20;10.32;;;26.50;99.90;;;;;;5016647;28;20029;-91
2022/06/29 03:01:36;;;;;;;16.80;10.43;;;26.50;99.90;;;;;;5014735;28;20380;-92
2022/06/29 03:04:04;;;;;;;13.82;9.93;;;26.50;99.90;;;;;;5015365;28;20389;-91
2022/06/29 03:06:40;;;;;;;24.23;10.60;;;26.50;99.90;;;;;;5014908;28;20543;-91
2022/06/29 03:09:07;;;;;;;24.42;10.35;;;26.50;99.90;;;;;;5016087;28;20029;-91
2022/06/29 03:11:34;;;;;;;22.35;10.13;;;26.50;99.90;;;;;;5030114;28;20403;-93
2022/06/29 03:13:59;;;;;;;12.05;10.07;;;26.50;99.90;;;;;;5028132;28;20057;-90
2022/06/29 03:16:25;;;;;;;13.35;10.18;;;26.40;99.90;;;;;;5018621;28;20082;-90
2022/06/29 03:18:51;;;;;;;13.40;10.02;;;26.40;99.90;;;;;;5013834;28;20038;-91
2022/06/29 03:21:22;;;;;;;16.98;10.43;;;26.40;99.90;;;;;;5021679;28;20473;-92
2022/06/29 03:23:48;;;;;;;15.67;10.50;;;26.40;99.90;;;;;;5029255;28;20045;-92
2022/06/29 03:26:18;;;;;;;11.75;10.10;;;26.40;99.90;;;;;;5023017;28;20611;-91
2022/06/29 03:28:43;;;;;;;11.48;9.93;;;26.50;99.90;;;;;;5030315;28;20030;-92
2022/06/29 03:31:09;;;;;;;10.95;9.77;;;26.50;99.90;;;;;;5025027;28;20040;-93
2022/06/29 03:33:35;;;;;;;11.27;9.57;;;26.50;99.90;;;;;;5029733;28;20117;-91
2022/06/29 03:36:00;;;;;;;15.15;9.80;;;26.50;99.90;;;;;;5016981;28;20033;-92
2022/06/29 03:38:26;;;;;;;12.75;10.07;;;26.50;99.90;;;;;;5025537;28;20388;-93
2022/06/29 03:40:52;;;;;;;19.20;9.77;;;26.50;99.90;;;;;;5030256;28;20493;-90
2022/06/29 03:43:18;;;;;;;11.75;9.77;;;26.50;99.90;;;;;;5032257;28;20028;-90
2022/06/29 03:45:44;;;;;;;15.23;9.70;;;26.50;99.90;;;;;;5045793;28;20037;-90
2022/06/29 03:48:10;;;;;;;16.15;9.40;;;26.50;99.90;;;;;;5031782;28;20033;-91
2022/06/29 03:50:36;;;;;;;12.55;9.52;;;26.50;99.90;;;;;;5023053;28;20025;-90
2022/06/29 03:53:02;;;;;;;14.13;10.13;;;26.50;99.90;;;;;;5031786;28;20029;-90
2022/06/29 03:55:29;;;;;;;14.70;10.00;;;26.50;99.90;;;;;;5023196;28;20037;-91
2022/06/29 03:57:55;;;;;;;17.52;10.05;;;26.60;99.90;;;;;;5011900;28;20022;-91
2022/06/29 04:00:20;;;;;;;15.02;9.90;;;26.60;99.90;;;;;;5021852;28;20034;-91
2022/06/29 04:02:46;;;;;;;20.40;9.45;;;26.60;99.90;;;;;;5030189;28;20495;-90
2022/06/29 04:05:12;;;;;;;20.02;10.52;;;26.70;99.90;;;;;;5024476;28;20079;-91
2022/06/29 04:07:38;;;;;;;17.48;10.13;;;26.80;99.90;;;;;;5024276;28;20033;-92
2022/06/29 04:10:04;;;;;;;17.13;10.30;;;26.80;99.90;;;;;;5025505;28;20030;-92
2022/06/29 04:12:33;;;;;;;13.25;9.93;;;26.90;99.90;;;;;;5030148;28;20025;-91
2022/06/29 04:15:00;;;;;;;20.77;9.75;;;26.90;99.90;;;;;;5025295;28;20052;-90
2022/06/29 04:17:26;;;;;;;12.85;9.70;;;27.00;99.90;;;;;;5016879;28;20053;-91
2022/06/29 04:19:52;;;;;;;13.82;9.63;;;27.00;99.90;;;;;;5017347;28;20048;-92
2022/06/29 04:22:19;;;;;;;13.77;9.30;;;27.00;99.90;;;;;;5024326;28;20091;-92
2022/06/29 04:24:45;;;;;;;14.88;9.73;;;27.00;99.90;;;;;;5024743;28;20033;-92
2022/06/29 04:27:11;;;;;;;10.52;9.43;;;27.00;99.90;;;;;;5028441;28;20096;-92
2022/06/29 04:29:36;;;;;;;14.10;9.27;;;27.10;99.90;;;;;;5024356;28;20026;-91
2022/06/29 04:32:03;;;;;;;13.65;9.60;;;27.10;99.90;;;;;;5013344;28;20037;-91
2022/06/29 04:34:29;;;;;;;13.60;9.18;;;27.10;99.90;;;;;;5014853;28;20029;-90
2022/06/29 04:36:55;;;;;;;15.75;8.95;;;27.10;99.90;;;;;;5023048;28;20041;-92
2022/06/29 04:39:21;;;;;;;17.33;9.18;;;27.10;99.90;;;;;;5027526;28;20037;-90
2022/06/29 04:41:48;;;;;;;18.63;9.43;;;27.10;99.90;;;;;;5029199;28;20033;-92
2022/06/29 04:44:14;;;;;;;19.77;9.00;;;27.10;99.90;;;;;;5026085;28;20096;-92
2022/06/29 04:46:40;;;;;;;14.93;9.07;;;27.10;99.90;;;;;;5028162;28;20026;-92
2022/06/29 04:49:05;;;;;;;12.32;9.23;;;27.20;99.90;;;;;;5025600;28;20025;-91
2022/06/29 04:51:32;;;;;;;16.15;9.57;;;27.20;99.90;;;;;;5026566;28;20025;-91
2022/06/29 04:53:59;;;;;;;14.52;9.43;;;27.10;99.90;;;;;;5028671;28;20420;-91
2022/06/29 04:56:28;;;;;;;17.65;10.07;;;27.20;99.90;;;;;;5027527;28;20531;-91
2022/06/29 04:58:54;;;;;;;21.10;8.88;;;27.20;99.90;;;;;;5026449;28;20048;-90
2022/06/29 05:01:30;;;;;;;20.40;8.98;;;27.20;99.90;;;;;;5015797;28;20022;-90
2022/06/29 05:03:59;;;;;;;22.60;8.35;;;27.20;99.90;;;;;;5014015;28;20052;-91
2022/06/29 05:06:25;;;;;;;16.35;7.57;;;27.30;99.90;;;;;;5025365;28;20022;-92
2022/06/29 05:08:51;;;;;;;18.35;7.20;;;27.30;99.90;;;;;;5029687;28;20176;-92
2022/06/29 05:11:18;;;;;;;19.13;9.10;;;27.30;99.90;;;;;;5029624;28;20083;-92
2022/06/29 05:13:45;;;;;;;18.75;9.00;;;27.40;99.90;;;;;;5029638;28;20032;-93
2022/06/29 05:16:10;;;;;;;16.50;10.25;;;27.40;99.90;;;;;;5025485;28;20386;-93
2022/06/29 05:18:37;;;;;;;12.77;9.10;;;27.40;99.90;;;;;;5029664;28;20022;-92
2022/06/29 05:21:03;;;;;;;22.20;9.52;;;27.40;99.90;;;;;;5017990;28;20057;-91
2022/06/29 05:23:30;;;;;;;12.38;8.52;;;27.40;99.90;;;;;;5012226;28;20026;-91
2022/06/29 05:25:57;;;;;;;18.42;9.35;;;27.50;99.90;;;;;;5023198;28;20115;-92
2022/06/29 05:28:22;;;;;;;20.50;9.80;;;27.50;99.90;;;;;;5015367;28;20022;-92
2022/06/29 05:30:50;;;;;;;12.50;8.30;;;27.70;99.90;;;;;;5021101;28;20025;-92
2022/06/29 05:33:16;;;;;;;19.75;8.43;;;27.70;99.90;;;;;;5034625;28;20022;-91
2022/06/29 05:35:42;;;;;;;21.65;7.95;;;27.70;99.90;;;;;;5025863;28;20396;-92
2022/06/29 05:38:07;;;;;;;19.55;7.40;;;27.80;99.90;;;;;;5034670;28;20477;-92
2022/06/29 05:40:33;;;;;;;24.45;7.60;;;27.90;99.90;;;;;;5028899;28;20040;-92
2022/06/29 05:42:59;;;;;;;21.52;7.22;;;28.00;99.90;;;;;;5035608;28;20071;-92
2022/06/29 05:45:25;;;;;;;19.38;6.05;;;28.20;99.90;;;;;;5020189;28;20544;-87
2022/06/29 05:47:53;;;;;;;20.58;6.38;;;28.30;99.90;;;;;;5014445;28;20022;-89
2022/06/29 05:50:19;;;;;;;25.25;6.32;;;28.50;99.90;;;;;;5017664;28;20471;-92
2022/06/29 05:52:45;;;;;;;29.05;7.53;;;28.70;99.90;;;;;;5016391;28;20022;-93
2022/06/29 05:55:11;;;;;;;19.17;6.97;;;28.90;99.90;;;;;;5021811;28;20428;-90
2022/06/29 05:57:36;;;;;;;22.77;6.38;;;29.00;99.90;;;;;;5036121;28;20087;-96
2022/06/29 06:00:05;;;;;;;20.70;6.53;;;29.00;99.90;;;;;;5032358;28;20396;-93
2022/06/29 06:02:30;;;;;;;21.08;5.88;;;29.20;99.90;;;;;;5029233;28;20025;-92
2022/06/29 06:04:56;;;;;;;27.65;6.07;;;29.40;99.90;;;;;;5028807;28;20022;-95
2022/06/29 06:07:22;;;;;;;26.17;6.43;;;29.50;99.90;;;;;;5028889;28;20029;-92
2022/06/29 06:09:48;;;;;;;26.63;6.32;;;29.60;99.90;;;;;;5039903;28;20037;-95
2022/06/29 06:12:13;;;;;;;21.95;6.22;;;29.80;99.90;;;;;;5046902;28;20021;-91
2022/06/29 06:14:39;;;;;;;25.15;5.93;;;29.90;99.90;;;;;;5047550;28;20021;-96
2022/06/29 06:17:05;;;;;;;30.30;6.53;;;30.10;99.90;;;;;;5043646;28;20575;-91
2022/06/29 06:19:31;;;;;;;28.20;6.35;;;30.30;99.90;;;;;;5031695;28;20071;-90
2022/06/29 06:21:56;;;;;;;30.15;6.57;;;30.40;99.90;;;;;;5034743;28;20163;-91
2022/06/29 06:24:22;;;;;;;25.27;6.47;;;30.40;99.90;;;;;;5027934;28;20058;-90
2022/06/29 06:26:48;;;;;;;31.63;6.28;;;30.50;99.90;;;;;;5032572;28;20022;-90
2022/06/29 06:29:14;;;;;;;32.15;6.35;;;30.60;99.90;;;;;;5026839;28;20434;-90
2022/06/29 06:31:40;;;;;;;25.17;6.70;;;30.70;99.90;;;;;;5029031;28;20388;-89
2022/06/29 06:34:06;;;;;;;27.45;6.97;;;30.70;99.90;;;;;;5029626;28;20030;-91
2022/06/29 06:36:31;;;;;;;31.25;6.93;;;30.70;99.90;;;;;;5014143;28;20041;-85
2022/06/29 06:38:57;;;;;;;32.92;7.38;;;30.60;99.90;;;;;;5014228;28;20022;-90
2022/06/29 06:41:23;;;;;;;34.95;7.10;;;30.50;99.90;;;;;;5025089;28;20036;-90
2022/06/29 06:43:59;;;;;;;25.05;7.07;;;30.20;99.90;;;;;;5017980;28;20022;-87
2022/06/29 06:46:26;;;;;;;22.80;7.07;;;30.20;99.90;;;;;;5023479;28;20125;-91
2022/06/29 06:48:52;;;;;;;26.92;7.28;;;30.00;99.90;;;;;;5016646;28;20076;-92
2022/06/29 06:51:20;;;;;;;23.80;6.88;;;29.80;99.90;;;;;;5031364;28;20049;-94
2022/06/29 06:53:46;;;;;;;28.80;7.43;;;29.60;99.90;;;;;;5035691;28;20431;-92
2022/06/29 06:56:13;;;;;;;34.50;7.10;;;29.50;99.90;;;;;;5034173;28;20056;-93
2022/06/29 06:58:39;;;;;;;21.90;6.57;;;29.50;99.90;;;;;;5014905;28;20025;-90
2022/06/29 07:01:06;;;;;;;30.70;6.60;;;29.40;99.90;;;;;;5025320;28;20053;-91
2022/06/29 07:03:32;;;;;;;30.08;7.85;;;29.30;99.90;;;;;;5011883;28;20022;-91
2022/06/29 07:06:05;;;;;;;23.70;6.95;;;29.50;99.90;;;;;;5016467;28;20037;-91
2022/06/29 07:08:32;;;;;;;30.25;6.75;;;29.70;99.90;;;;;;5013787;28;20030;-92
2022/06/29 07:11:02;;;;;;;36.30;7.35;;;29.90;99.90;;;;;;5029016;28;20124;-92
2022/06/29 07:13:28;;;;;;;35.13;7.70;;;30.10;99.90;;;;;;5032206;28;20022;-90
2022/06/29 07:15:55;;;;;;;30.67;7.07;;;30.20;99.90;;;;;;5027748;28;20042;-92
2022/06/29 07:18:21;;;;;;;44.28;7.90;;;30.40;99.90;;;;;;5030284;28;20045;-91
2022/06/29 07:20:47;;;;;;;32.97;7.50;;;30.40;99.90;;;;;;5021781;28;20102;-92
2022/06/29 07:23:13;;;;;;;39.10;7.93;;;30.30;99.90;;;;;;5034024;28;20300;-92
2022/06/29 07:25:39;;;;;;;37.55;9.20;;;30.20;99.90;;;;;;5031974;28;20204;-93
2022/06/29 07:28:05;;;;;;;35.00;8.40;;;29.90;99.90;;;;;;5013674;28;20056;-91
2022/06/29 07:30:31;;;;;;;37.83;7.65;;;29.80;99.90;;;;;;5017994;28;20061;-90
2022/06/29 07:32:57;;;;;;;48.33;8.65;;;29.90;99.90;;;;;;5014639;28;20483;-95
2022/06/29 07:35:23;;;;;;;41.08;8.20;;;30.20;99.90;;;;;;5025440;28;20057;-92
2022/06/29 07:37:50;;;;;;;32.05;8.90;;;30.30;99.90;;;;;;5034212;28;20507;-96
2022/06/29 07:40:16;;;;;;;40.63;10.23;;;30.10;99.90;;;;;;5024940;28;20030;-91
2022/06/29 07:42:42;;;;;;;29.05;8.48;;;29.90;99.90;;;;;;5033256;28;20032;-90
2022/06/29 07:45:08;;;;;;;38.47;8.52;;;29.90;99.90;;;;;;5023323;28;20034;-91
2022/06/29 07:47:34;;;;;;;35.58;9.13;;;30.00;99.90;;;;;;5029621;28;20092;-91
2022/06/29 07:50:00;;;;;;;33.17;8.43;;;30.30;99.90;;;;;;5026268;28;20030;-91
2022/06/29 07:52:26;;;;;;;39.33;8.68;;;30.50;99.90;;;;;;5015198;28;20028;-90
2022/06/29 07:54:52;;;;;;;43.92;9.00;;;30.60;99.90;;;;;;5017447;28;20033;-88
2022/06/29 07:57:18;;;;;;;27.23;7.75;;;30.90;99.90;;;;;;5014248;28;20048;-91
2022/06/29 07:59:46;;;;;;;42.05;9.32;;;30.90;99.90;;;;;;5015726;28;20029;-91
2022/06/29 08:02:13;;;;;;;35.90;8.23;;;30.90;99.90;;;;;;5025775;28;20436;-92
2022/06/29 08:04:39;;;;;;;27.50;8.77;;;30.80;99.90;;;;;;5027306;28;20021;-90
2022/06/29 08:07:04;;;;;;;34.67;10.88;;;30.80;99.90;;;;;;5030908;28;20380;-90
2022/06/29 08:09:31;;;;;;;35.83;10.00;;;30.50;99.90;;;;;;5028113;28;20036;-94
2022/06/29 08:11:57;;;;;;;42.40;11.75;;;29.90;99.90;;;;;;5027991;28;20384;-92
2022/06/29 08:14:23;;;;;;;47.65;12.10;;;29.30;99.90;;;;;;5027521;28;20029;-91
2022/06/29 08:16:48;;;;;;;39.72;11.50;;;28.60;99.90;;;;;;5021450;28;20143;-88
2022/06/29 08:19:15;;;;;;;38.40;12.48;;;28.10;99.90;;;;;;5027830;28;20103;-87
2022/06/29 08:21:41;;;;;;;40.45;13.65;;;27.80;99.90;;;;;;5013538;28;20029;-88
2022/06/29 08:24:07;;;;;;;51.53;14.63;;;27.70;99.90;;;;;;5013913;28;20029;-88
2022/06/29 08:26:33;;;;;;;38.53;12.27;;;27.70;99.90;;;;;;5019707;28;20040;-89
2022/06/29 08:28:58;;;;;;;31.23;12.55;;;27.40;99.90;;;;;;5013856;28;20039;-88
2022/06/29 08:31:24;;;;;;;44.30;13.85;;;27.30;99.90;;;;;;5016048;28;20026;-90
2022/06/29 08:33:50;;;;;;;49.78;16.67;;;27.10;99.90;;;;;;5012633;28;20064;-88
2022/06/29 08:36:16;;;;;;;55.55;17.77;;;26.80;99.90;;;;;;5026579;28;20041;-88
2022/06/29 08:38:42;;;;;;;40.85;16.00;;;26.60;99.90;;;;;;5030018;28;20468;-91
2022/06/29 08:41:10;;;;;;;39.75;15.00;;;26.60;99.90;;;;;;5019800;28;20093;-86
2022/06/29 08:43:36;;;;;;;49.45;12.90;;;26.80;99.90;;;;;;5011347;28;20112;-87
2022/06/29 08:46:03;;;;;;;34.15;11.00;;;26.80;99.90;;;;;;5018980;28;20235;-89
2022/06/29 08:48:30;;;;;;;34.47;11.02;;;27.00;99.90;;;;;;5028616;28;20026;-90
2022/06/29 08:50:56;;;;;;;36.35;10.77;;;27.00;99.90;;;;;;5022440;28;20050;-88
2022/06/29 08:53:23;;;;;;;31.77;11.35;;;26.90;99.90;;;;;;5010276;28;20071;-86
2022/06/29 08:55:51;;;;;;;35.55;9.57;;;27.00;99.90;;;;;;5022496;28;20033;-87
2022/06/29 08:58:20;;;;;;;38.10;11.57;;;27.00;99.90;;;;;;5030190;28;20076;-84
2022/06/29 09:00:46;;;;;;;34.53;9.77;;;27.10;99.90;;;;;;5020594;28;20029;-87
2022/06/29 09:03:15;;;;;;;40.20;9.32;;;27.60;99.90;;;;;;5014314;28;20121;-86
2022/06/29 09:05:45;;;;;;;29.25;9.68;;;27.60;99.90;;;;;;5025344;28;20034;-86
2022/06/29 09:08:11;;;;;;;28.08;8.95;;;27.70;99.90;;;;;;5033513;28;20025;-88
2022/06/29 09:10:37;;;;;;;29.70;8.57;;;27.90;99.90;;;;;;5028864;28;20039;-88
2022/06/29 09:13:04;;;;;;;27.90;8.70;;;28.20;99.90;;;;;;5014436;28;20477;-87
2022/06/29 09:15:36;;;;;;;32.55;9.35;;;28.10;99.90;;;;;;5028593;28;20042;-90
2022/06/29 09:18:04;;;;;;;36.28;10.18;;;28.00;99.90;;;;;;5036452;28;20037;-90
2022/06/29 09:20:40;;;;;;;27.40;8.38;;;27.70;99.90;;;;;;5032601;28;20029;-91
2022/06/29 09:23:08;;;;;;;31.40;9.15;;;27.70;99.90;;;;;;5015555;28;20026;-92
2022/06/29 09:25:39;;;;;;;30.17;8.35;;;27.80;99.90;;;;;;5020472;28;20029;-89
2022/06/29 09:28:20;;;;;;;22.45;8.13;;;27.90;99.90;;;;;;5014364;28;20624;-89
2022/06/29 09:30:46;;;;;;;24.85;8.18;;;27.50;99.90;;;;;;5026727;28;20021;-90
2022/06/29 09:33:12;;;;;;;24.52;8.13;;;27.50;99.90;;;;;;5015669;28;20029;-89
2022/06/29 09:35:39;;;;;;;37.40;8.55;;;27.50;99.90;;;;;;5028343;28;20116;-88
2022/06/29 09:38:25;;;;;;;29.23;8.77;;;27.50;99.90;;;;;;5014243;28;20080;-89
2022/06/29 09:41:14;;;;;;;32.17;8.05;;;27.60;99.90;;;;;;5027443;28;20476;-89
2022/06/29 09:43:44;;;;;;;24.70;7.03;;;27.50;99.90;;;;;;5031996;28;20029;-89
2022/06/29 09:46:15;;;;;;;26.92;7.60;;;27.30;99.90;;;;;;5026962;28;20022;-91
2022/06/29 09:48:42;;;;;;;21.48;7.85;;;27.40;99.90;;;;;;5016544;28;20105;-92
2022/06/29 09:54:01;;;;;;;31.88;8.77;;;27.20;99.90;;;;;;5018627;28;20048;-92
2022/06/29 09:56:30;;;;;;;24.30;7.93;;;27.30;99.90;;;;;;5025197;28;20038;-90
2022/06/29 09:58:58;;;;;;;23.92;7.60;;;27.40;99.90;;;;;;5019785;28;20045;-94
2022/06/29 10:04:13;;;;;;;32.42;7.93;;;27.70;99.90;;;;;;5032594;28;20493;-91
2022/06/29 10:06:40;;;;;;;22.55;8.13;;;27.70;99.90;;;;;;5025974;28;20040;-91
2022/06/29 10:09:06;;;;;;;35.60;8.55;;;27.60;99.90;;;;;;5039055;28;20095;-95
2022/06/29 10:14:42;;;;;;;24.92;8.13;;;27.60;99.90;;;;;;5032030;28;20213;-93
2022/06/29 10:17:11;;;;;;;29.52;7.85;;;27.50;99.90;;;;;;5033373;28;20571;-94
2022/06/29 10:19:54;;;;;;;32.15;7.25;;;27.60;99.90;;;;;;5032784;28;20037;-94
2022/06/29 10:22:20;;;;;;;22.70;7.82;;;27.90;99.90;;;;;;5038027;28;20032;-93
2022/06/29 10:25:15;;;;;;;23.98;6.95;;;28.20;99.90;;;;;;5035578;28;20026;-89
2022/06/29 10:28:10;;;;;;;25.98;6.70;;;28.20;99.90;;;;;;5006852;28;20038;-92
2022/06/29 10:30:37;;;;;;;30.30;7.07;;;28.20;99.90;;;;;;5025561;28;20483;-91
2022/06/29 10:33:37;;;;;;;22.15;6.50;;;28.30;99.90;;;;;;5037595;28;20025;-92
2022/06/29 10:36:09;;;;;;;17.35;6.70;;;28.40;99.90;;;;;;5036286;28;20018;-94
2022/06/29 10:38:58;;;;;;;23.60;6.80;;;28.30;99.90;;;;;;5018230;28;20022;-92
2022/06/29 10:44:08;;;;;;;27.42;7.38;;;28.80;99.90;;;;;;5019340;28;20061;-95
2022/06/29 10:46:56;;;;;;;23.48;6.65;;;29.00;99.90;;;;;;5034669;28;20048;-92
2022/06/29 10:49:23;;;;;;;26.63;6.70;;;29.10;99.90;;;;;;5032051;28;20042;-93
2022/06/29 10:51:49;;;;;;;28.67;6.47;;;29.00;99.90;;;;;;5032636;28;20499;-94
2022/06/29 10:54:32;;;;;;;18.73;6.18;;;28.90;99.90;;;;;;5030600;28;20053;-90
2022/06/29 10:56:58;;;;;;;27.42;6.70;;;28.90;99.90;;;;;;5031980;28;20488;-96
2022/06/29 10:59:51;;;;;;;17.33;6.20;;;28.80;99.90;;;;;;5030079;28;20540;-92
2022/06/29 11:02:17;;;;;;;19.95;5.65;;;28.70;99.90;;;;;;5016354;28;20062;-92
2022/06/29 11:04:44;;;;;;;19.95;6.50;;;28.90;99.90;;;;;;5028488;28;20040;-92
2022/06/29 11:12:51;;;;;;;25.90;6.28;;;28.60;99.90;;;;;;5033321;28;20392;-91
2022/06/29 11:15:40;;;;;;;25.35;6.13;;;28.00;99.90;;;;;;5031224;28;20059;-92
2022/06/29 11:18:13;;;;;;;29.10;6.65;;;28.00;99.90;;;;;;5015637;28;20054;-91
2022/06/29 11:20:40;;;;;;;30.40;6.57;;;28.20;99.90;;;;;;5025145;28;20124;-92
2022/06/29 11:23:14;;;;;;;23.45;6.53;;;28.10;99.90;;;;;;5043649;28;20025;-89
2022/06/29 11:25:43;;;;;;;18.67;5.93;;;27.70;99.90;;;;;;5030433;28;20029;-89
2022/06/29 11:28:09;;;;;;;31.88;6.95;;;27.80;99.90;;;;;;5037533;28;20125;-93
2022/06/29 11:30:35;;;;;;;22.85;7.35;;;27.40;99.90;;;;;;5028170;28;20053;-88
2022/06/29 11:33:10;;;;;;;22.85;6.68;;;27.30;99.90;;;;;;5016460;28;20018;-90
2022/06/29 11:35:38;;;;;;;28.65;7.40;;;27.20;99.90;;;;;;5038559;28;20029;-91
2022/06/29 11:38:05;;;;;;;27.17;7.18;;;26.90;99.90;;;;;;5049442;28;20029;-91
2022/06/29 11:40:43;;;;;;;26.92;7.22;;;26.70;99.90;;;;;;5024121;28;20108;-94
2022/06/29 11:43:14;;;;;;;25.38;6.60;;;26.90;99.90;;;;;;5015367;28;20022;-91
2022/06/29 11:45:45;;;;;;;30.55;7.65;;;26.90;99.90;;;;;;5030585;28;20026;-96
2022/06/29 11:48:15;;;;;;;19.73;7.03;;;26.90;99.90;;;;;;5021555;28;20121;-93
2022/06/29 11:50:58;;;;;;;24.52;6.75;;;26.90;99.90;;;;;;5025472;28;20029;-94
2022/06/29 11:53:54;;;;;;;24.73;7.90;;;27.00;99.90;;;;;;5037131;28;20471;-93
2022/06/29 11:56:23;;;;;;;29.25;7.95;;;26.80;99.90;;;;;;5030507;28;20496;-94
2022/06/29 11:58:56;;;;;;;25.73;7.65;;;26.60;99.90;;;;;;5033648;28;20040;-93
2022/06/29 12:01:23;;;;;;;26.65;7.60;;;26.70;99.90;;;;;;5026747;28;20364;-90
2022/06/29 12:03:51;;;;;;;25.17;7.15;;;26.80;99.90;;;;;;5026524;28;20024;-93
2022/06/29 12:06:18;;;;;;;29.30;7.68;;;27.10;99.90;;;;;;5021868;28;20382;-93
2022/06/29 12:08:44;;;;;;;27.45;6.97;;;27.10;99.90;;;;;;5030203;28;20022;-95
2022/06/29 12:11:10;;;;;;;21.88;7.75;;;28.70;99.90;;;;;;5032993;28;20551;-93
2022/06/29 12:13:36;;;;;;;21.00;6.45;;;30.70;99.90;;;;;;5033093;28;20053;-91
2022/06/29 12:16:02;;;;;;;27.50;6.47;;;31.80;99.90;;;;;;5021521;28;20073;-90
2022/06/29 12:18:28;;;;;;;16.73;5.57;;;32.80;99.90;;;;;;5033493;28;20037;-91
2022/06/29 12:20:53;;;;;;;23.45;6.47;;;33.10;99.90;;;;;;5025922;28;20530;-92
2022/06/29 12:23:19;;;;;;;16.50;5.97;;;33.00;99.90;;;;;;5029386;28;20230;-90
2022/06/29 12:25:45;;;;;;;19.80;5.57;;;33.10;99.90;;;;;;5025650;28;20404;-93
2022/06/29 12:28:11;;;;;;;17.35;5.35;;;33.50;99.90;;;;;;5008347;28;20025;-89
2022/06/29 12:30:38;;;;;;;22.58;5.30;;;33.70;99.90;;;;;;5020162;28;20116;-91
2022/06/29 12:33:09;;;;;;;14.77;5.30;;;33.20;99.90;;;;;;5025147;28;20052;-92
2022/06/29 12:35:38;;;;;;;16.20;5.90;;;32.70;99.90;;;;;;5021815;28;20048;-89
2022/06/29 12:38:04;;;;;;;18.42;5.93;;;32.80;99.90;;;;;;5021644;28;20124;-89
2022/06/29 12:40:30;;;;;;;25.60;5.88;;;33.00;99.90;;;;;;5023213;28;20264;-88
2022/06/29 12:42:56;;;;;;;19.58;5.90;;;33.50;99.90;;;;;;5028818;28;20048;-93
2022/06/29 12:45:24;;;;;;;27.13;6.30;;;34.40;99.90;;;;;;5022874;28;20484;-88
2022/06/29 12:47:50;;;;;;;23.23;5.28;;;35.60;99.90;;;;;;5029117;28;20028;-92
2022/06/29 12:50:16;;;;;;;23.13;5.43;;;36.20;99.90;;;;;;5020058;28;20033;-88
2022/06/29 12:52:46;;;;;;;16.58;5.50;;;36.20;99.90;;;;;;5011695;28;20022;-93
2022/06/29 12:55:13;;;;;;;22.25;6.40;;;35.30;99.90;;;;;;5018951;28;20120;-88